createdAt,value
2022-09-28T00:00:53.085Z,99495.09
2022-09-28T00:03:33.168Z,99487.09
2022-09-28T00:06:24.046Z,99487.88
2022-09-28T00:09:05.173Z,99486.31
2022-09-28T00:11:53.061Z,99489.44
2022-09-28T00:14:33.203Z,99482.63
2022-09-28T00:17:21.089Z,99470.69
2022-09-28T00:20:05.298Z,99467.97
2022-09-28T00:22:52.065Z,99486.91
2022-09-28T00:25:39.025Z,99484.09
2022-09-28T00:28:26.152Z,99485.63
2022-09-28T00:31:07.065Z,99490.06
2022-09-28T00:33:51.929Z,99502.66
2022-09-28T00:36:40.056Z,99503.03
2022-09-28T00:39:27.036Z,99499.53
2022-09-28T00:42:07.166Z,99496.28
2022-09-28T00:44:58.017Z,99495.91
2022-09-28T00:47:56.006Z,99506.66
2022-09-28T00:50:38.679Z,99509.06
2022-09-28T00:53:32.045Z,99507.44
2022-09-28T00:56:19.054Z,99509.03
2022-09-28T00:59:06.992Z,99514.94
2022-09-28T01:01:53.989Z,99510.94
2022-09-28T01:04:42.027Z,99516.47
2022-09-28T01:07:22.900Z,99516.03
2022-09-28T01:10:10.018Z,99515.22
2022-09-28T01:12:56.966Z,99524.38
2022-09-28T01:15:49.985Z,99512.84
2022-09-28T01:19:08.083Z,99515.19
2022-09-28T01:22:43.005Z,99504.44
2022-09-28T01:25:35.963Z,99509.56
2022-09-28T01:28:32.988Z,99505.16
2022-09-28T01:31:22.987Z,99502.72
2022-09-28T01:34:31.042Z,99509.84
2022-09-28T01:37:21.954Z,99514.59
2022-09-28T01:40:05.103Z,99511.38
2022-09-28T01:42:54.972Z,99507.81
2022-09-28T01:45:47.979Z,99504.25
2022-09-28T01:48:46.958Z,99505.75
2022-09-28T01:51:57.937Z,99501.78
2022-09-28T01:55:09.479Z,99504.13
2022-09-28T01:58:01.912Z,99504.50
2022-09-28T02:00:47.079Z,99505.97
2022-09-28T02:03:42.941Z,99497.28
2022-09-28T02:06:31.994Z,99495.22
2022-09-28T02:09:29.465Z,99489.69
2022-09-28T02:12:31.904Z,99497.56
2022-09-28T02:15:23.989Z,99486.00
2022-09-28T02:18:12.951Z,99481.66
2022-09-28T02:21:05.983Z,99480.47
2022-09-28T02:24:07.916Z,99479.72
2022-09-28T02:27:03.919Z,99488.47
2022-09-28T02:29:50.921Z,99494.03
2022-09-28T02:32:32.988Z,99491.25
2022-09-28T02:35:22.926Z,99492.41
2022-09-28T02:38:04.053Z,99499.56
2022-09-28T02:41:02.944Z,99507.53
2022-09-28T02:44:16.950Z,99500.47
2022-09-28T02:47:20.862Z,99508.75
2022-09-28T02:50:08.884Z,99509.56
2022-09-28T02:53:04.859Z,99506.69
2022-09-28T02:56:03.875Z,99509.81
2022-09-28T02:58:48.026Z,99509.81
2022-09-28T03:02:02.947Z,99505.41
2022-09-28T03:04:57.857Z,99509.72
2022-09-28T03:26:01.795Z,99524.03
2022-09-28T03:28:42.295Z,99521.00
2022-09-28T03:31:34.834Z,99516.06
2022-09-28T03:34:21.799Z,99522.59
2022-09-28T03:37:08.841Z,99530.22
2022-09-28T03:39:55.804Z,99528.75
2022-09-28T03:42:37.811Z,99528.34
2022-09-28T03:45:24.871Z,99534.00
2022-09-28T03:48:04.982Z,99534.09
2022-09-28T03:50:51.785Z,99532.59
2022-09-28T03:53:39.810Z,99541.66
2022-09-28T03:56:20.224Z,99536.13
2022-09-28T03:59:06.812Z,99532.16
2022-09-28T04:01:56.796Z,99523.03
2022-09-28T04:04:37.883Z,99530.91
2022-09-28T04:07:28.975Z,99540.84
2022-09-28T04:10:10.999Z,99531.41
2022-09-28T04:13:01.766Z,99523.19
2022-09-28T04:15:41.960Z,99531.59
2022-09-28T04:18:29.772Z,99526.47
2022-09-28T04:21:28.856Z,99527.00
2022-09-28T04:24:24.751Z,99527.69
2022-09-28T04:27:23.820Z,99532.16
2022-09-28T04:30:10.750Z,99533.41
2022-09-28T04:32:54.846Z,99537.31
2022-09-28T04:35:43.775Z,99533.72
2022-09-28T04:38:48.369Z,99539.19
2022-09-28T04:41:30.745Z,99553.66
2022-09-28T04:44:17.688Z,99561.75
2022-09-28T04:47:10.713Z,99563.31
2022-09-28T04:50:25.717Z,99550.56
2022-09-28T04:53:34.727Z,99568.72
2022-09-28T04:56:18.833Z,99567.53
2022-09-28T04:59:05.716Z,99566.31
2022-09-28T05:01:47.600Z,99571.50
2022-09-28T05:04:34.696Z,99570.44
2022-09-28T05:07:49.737Z,99574.09
2022-09-28T05:10:30.052Z,99573.28
2022-09-28T05:13:16.735Z,99584.84
2022-09-28T05:16:05.854Z,99582.03
2022-09-28T05:19:03.708Z,99594.09
2022-09-28T05:21:48.827Z,99590.41
2022-09-28T05:24:35.692Z,99582.81
2022-09-28T05:27:22.685Z,99584.47
2022-09-28T05:30:12.701Z,99592.09
2022-09-28T05:33:28.677Z,99595.13
2022-09-28T05:36:20.105Z,99601.59
2022-09-28T05:39:06.689Z,99615.56
2022-09-28T05:41:47.043Z,99614.38
2022-09-28T05:44:34.858Z,99616.34
2022-09-28T05:47:15.040Z,99623.44
2022-09-28T05:50:01.679Z,99620.72
2022-09-28T05:52:43.345Z,99623.09
2022-09-28T05:55:29.651Z,99607.00
2022-09-28T05:58:10.081Z,99613.19
2022-09-28T06:00:57.700Z,99612.28
2022-09-28T06:03:38.057Z,99619.59
2022-09-28T06:06:24.683Z,99615.28
2022-09-28T06:09:05.056Z,99612.59
2022-09-28T06:12:12.840Z,99618.59
2022-09-28T06:15:07.638Z,99619.91
2022-09-28T06:17:54.632Z,99620.38
2022-09-28T06:21:07.663Z,99615.13
2022-09-28T06:23:50.733Z,99618.28
2022-09-28T06:26:37.640Z,99622.13
2022-09-28T06:29:19.762Z,99616.22
2022-09-28T06:32:06.658Z,99621.47
2022-09-28T06:34:50.732Z,99620.13
2022-09-28T06:37:40.637Z,99622.91
2022-09-28T06:40:20.888Z,99629.19
2022-09-28T06:43:21.600Z,99631.13
2022-09-28T06:46:21.344Z,99625.53
2022-09-28T06:49:26.657Z,99625.88
2022-09-28T06:52:31.610Z,99622.47
2022-09-28T06:55:19.459Z,99624.81
2022-09-28T06:58:14.611Z,99625.28
2022-09-28T07:01:00.488Z,99620.31
2022-09-28T07:03:55.945Z,99624.25
2022-09-28T07:06:54.394Z,99621.84
2022-09-28T07:10:07.595Z,99629.28
2022-09-28T07:13:11.969Z,99629.03
2022-09-28T07:16:08.636Z,99637.09
2022-09-28T07:18:55.580Z,99629.78
2022-09-28T07:21:36.776Z,99632.66
2022-09-28T07:24:23.809Z,99629.84
2022-09-28T07:27:28.767Z,99635.16
2022-09-28T07:30:27.942Z,99630.09
2022-09-28T07:33:30.343Z,99634.56
2022-09-28T07:36:29.781Z,99626.75
2022-09-28T07:39:09.662Z,99625.84
2022-09-28T07:41:59.701Z,99636.56
2022-09-28T07:44:50.562Z,99636.22
2022-09-28T07:47:38.507Z,99628.47
2022-09-28T07:50:26.673Z,99627.41
2022-09-28T07:53:29.540Z,99623.47
2022-09-28T07:56:38.681Z,99627.94
2022-09-28T07:59:50.537Z,99629.91
2022-09-28T08:02:48.666Z,99617.41
2022-09-28T08:05:42.536Z,99621.44
2022-09-28T08:08:29.541Z,99615.50
2022-09-28T08:11:13.532Z,99610.88
2022-09-28T08:14:18.654Z,99613.19
2022-09-28T08:17:07.261Z,99618.28
2022-09-28T08:20:21.795Z,99609.66
2022-09-28T08:23:13.537Z,99615.91
2022-09-28T08:26:00.620Z,99605.63
2022-09-28T08:28:42.536Z,99607.38
2022-09-28T08:32:01.364Z,99604.38
2022-09-28T08:34:53.551Z,99603.16
2022-09-28T08:37:58.127Z,99592.72
2022-09-28T08:41:26.508Z,99613.69
2022-09-28T08:44:30.580Z,99623.81
2022-09-28T08:48:15.972Z,99617.06
2022-09-28T08:51:29.501Z,99621.25
2022-09-28T08:54:58.592Z,99619.03
2022-09-28T08:57:54.522Z,99622.94
2022-09-28T09:00:44.608Z,99608.16
2022-09-28T09:03:46.464Z,99619.28
2022-09-28T09:07:13.576Z,99615.28
2022-09-28T09:10:22.476Z,99611.84
2022-09-28T09:13:06.554Z,99609.38
2022-09-28T09:16:30.566Z,99614.31
2022-09-28T09:19:49.601Z,99616.31
2022-09-28T09:23:12.457Z,99619.38
2022-09-28T09:26:13.643Z,99614.50
2022-09-28T09:29:22.315Z,99623.16
2022-09-28T09:32:33.444Z,99616.78
2022-09-28T09:35:26.889Z,99615.06
2022-09-28T09:38:48.476Z,99609.28
2022-09-28T09:42:43.461Z,99617.06
2022-09-28T09:46:06.888Z,99615.56
2022-09-28T09:49:41.479Z,99613.91
2022-09-28T09:52:36.995Z,99620.50
2022-09-28T09:55:34.540Z,99620.00
2022-09-28T09:58:54.452Z,99620.28
2022-09-28T10:01:48.508Z,99626.22
2022-09-28T10:04:47.577Z,99630.78
2022-09-28T10:07:54.452Z,99624.09
2022-09-28T10:10:42.570Z,99624.81
2022-09-28T10:13:31.447Z,99628.75
2022-09-28T10:16:32.488Z,99619.53
2022-09-28T10:19:28.456Z,99622.69
2022-09-28T10:22:40.420Z,99611.06
2022-09-28T10:25:38.420Z,99612.84
2022-09-28T10:28:36.483Z,99609.25
2022-09-28T10:31:49.449Z,99624.41
2022-09-28T10:34:38.430Z,99631.09
2022-09-28T10:37:24.563Z,99620.94
2022-09-28T10:40:50.558Z,99622.56
2022-09-28T10:44:12.431Z,99623.38
2022-09-28T10:47:16.416Z,99601.19
2022-09-28T10:49:58.574Z,99589.53
2022-09-28T10:52:52.446Z,99590.88
2022-09-28T10:56:05.477Z,99600.09
2022-09-28T10:58:52.372Z,99599.50
2022-09-28T11:01:54.391Z,99589.16
2022-09-28T11:04:47.397Z,99594.41
2022-09-28T11:07:33.371Z,99593.91
2022-09-28T11:10:28.395Z,99593.91
2022-09-28T11:13:18.486Z,99588.38
2022-09-28T11:16:15.411Z,99588.44
2022-09-28T11:18:55.502Z,99580.56
2022-09-28T11:21:50.374Z,99579.38
2022-09-28T11:24:39.463Z,99579.75
2022-09-28T11:27:34.368Z,99582.13
2022-09-28T11:30:29.536Z,99575.94
2022-09-28T11:33:55.342Z,99574.50
2022-09-28T11:37:38.353Z,99580.81
2022-09-28T11:41:10.338Z,99581.19
2022-09-28T11:44:33.366Z,99565.53
2022-09-28T11:48:02.345Z,99568.66
2022-09-28T11:50:53.434Z,99579.22
2022-09-28T11:53:50.345Z,99574.88
2022-09-28T11:56:52.354Z,99575.19
2022-09-28T11:59:35.664Z,99570.41
2022-09-28T12:02:26.386Z,99577.22
2022-09-28T12:05:32.426Z,99575.31
2022-09-28T12:08:25.326Z,99574.19
2022-09-28T12:11:41.358Z,99576.63
2022-09-28T12:14:36.575Z,99573.28
2022-09-28T12:17:35.478Z,99576.44
2022-09-28T12:20:31.339Z,99577.38
2022-09-28T12:23:25.892Z,99583.13
2022-09-28T12:26:27.289Z,99590.34
2022-09-28T12:29:11.487Z,99588.25
2022-09-28T12:32:05.302Z,99585.75
2022-09-28T12:34:48.372Z,99596.50
2022-09-28T12:38:00.323Z,99600.06
2022-09-28T12:41:26.268Z,99598.00
2022-09-28T12:44:36.312Z,99588.31
2022-09-28T12:47:43.274Z,99591.53
2022-09-28T12:50:39.066Z,99585.97
2022-09-28T12:53:37.261Z,99586.47
2022-09-28T12:56:50.290Z,99583.66
2022-09-28T12:59:46.827Z,99577.31
2022-09-28T13:02:45.301Z,99587.34
2022-09-28T13:06:25.266Z,99569.06
2022-09-28T13:09:17.232Z,99593.28
2022-09-28T13:12:23.245Z,99592.44
2022-09-28T13:15:41.344Z,99586.66
2022-09-28T13:18:51.270Z,99586.25
2022-09-28T13:22:01.270Z,99587.63
2022-09-28T13:24:53.249Z,99593.09
2022-09-28T13:27:47.277Z,99595.97
2022-09-28T13:30:27.708Z,99600.13
2022-09-28T13:33:17.209Z,99605.06
2022-09-28T13:35:57.358Z,99600.69
2022-09-28T13:38:54.193Z,99601.50
2022-09-28T13:41:55.983Z,99609.59
2022-09-28T13:45:13.207Z,99608.00
2022-09-28T13:48:18.650Z,99597.72
2022-09-28T13:51:29.214Z,99600.72
2022-09-28T13:54:23.379Z,99613.59
2022-09-28T13:57:53.196Z,99604.88
2022-09-28T14:00:38.364Z,99612.06
2022-09-28T14:03:49.183Z,99608.47
2022-09-28T14:06:49.439Z,99609.31
2022-09-28T14:09:56.189Z,99621.91
2022-09-28T14:12:51.600Z,99625.50
2022-09-28T14:15:44.227Z,99625.94
2022-09-28T14:18:38.294Z,99621.50
2022-09-28T14:22:02.183Z,99621.09
2022-09-28T14:24:54.182Z,99630.75
2022-09-28T14:27:37.794Z,99634.81
2022-09-28T14:30:27.174Z,99636.06
2022-09-28T14:33:19.379Z,99636.47
2022-09-28T14:36:20.138Z,99635.69
2022-09-28T14:39:19.432Z,99630.00
2022-09-28T14:42:06.171Z,99642.78
2022-09-28T14:45:05.394Z,99646.41
2022-09-28T14:47:55.152Z,99648.75
2022-09-28T14:50:42.114Z,99644.75
2022-09-28T14:53:31.245Z,99649.50
2022-09-28T14:56:21.114Z,99651.94
2022-09-28T14:59:04.250Z,99652.41
2022-09-28T15:02:15.159Z,99651.22
2022-09-28T15:05:16.267Z,99658.44
2022-09-28T15:08:04.140Z,99657.66
2022-09-28T15:10:47.254Z,99659.22
2022-09-28T15:27:56.740Z,99690.78
2022-09-28T15:30:37.468Z,99692.28
2022-09-28T15:34:12.751Z,99701.84
2022-09-28T15:37:02.726Z,99701.84
2022-09-28T15:39:42.828Z,99701.06
2022-09-28T15:42:29.751Z,99707.44
2022-09-28T15:45:18.710Z,99712.59
2022-09-28T15:48:24.951Z,99715.06
2022-09-28T15:51:21.722Z,99714.72
2022-09-28T15:54:04.617Z,99716.34
2022-09-28T15:57:11.716Z,99718.34
2022-09-28T15:59:59.267Z,99717.13
2022-09-28T16:02:52.726Z,99715.13
2022-09-28T16:05:57.673Z,99709.97
2022-09-28T16:08:44.705Z,99707.59
2022-09-28T16:11:44.689Z,99717.25
2022-09-28T16:14:27.798Z,99713.97
2022-09-28T16:17:24.703Z,99722.44
2022-09-28T16:20:07.763Z,99726.09
2022-09-28T16:22:55.688Z,99732.47
2022-09-28T16:25:43.691Z,99719.28
2022-09-28T16:28:29.536Z,99717.31
2022-09-28T16:31:26.689Z,99721.75
2022-09-28T16:34:13.613Z,99711.75
2022-09-28T16:37:02.657Z,99726.16
2022-09-28T16:39:43.027Z,99727.75
2022-09-28T16:42:29.658Z,99732.16
2022-09-28T16:45:18.458Z,99740.16
2022-09-28T16:48:08.669Z,99736.97
2022-09-28T16:50:49.040Z,99742.97
2022-09-28T16:53:53.650Z,99744.16
2022-09-28T16:56:36.359Z,99738.56
2022-09-28T16:59:23.614Z,99743.38
2022-09-28T17:02:47.304Z,99745.38
2022-09-28T17:05:27.713Z,99758.56
2022-09-28T17:08:19.598Z,99749.75
2022-09-28T17:11:18.151Z,99757.78
2022-09-28T17:14:03.095Z,99760.16
2022-09-28T17:17:07.367Z,99764.59
2022-09-28T17:19:56.613Z,99762.59
2022-09-28T17:22:43.633Z,99761.38
2022-09-28T17:25:39.575Z,99763.00
2022-09-28T17:28:38.615Z,99768.59
2022-09-28T17:31:22.887Z,99771.44
2022-09-28T17:34:09.622Z,99769.81
2022-09-28T17:36:57.619Z,99781.00
2022-09-28T17:39:37.977Z,99783.41
2022-09-28T17:42:17.589Z,99782.19
2022-09-28T17:45:04.597Z,99775.81
2022-09-28T17:47:45.055Z,99777.00
2022-09-28T17:50:33.607Z,99782.97
2022-09-28T17:53:14.555Z,99788.59
2022-09-28T17:56:01.578Z,99789.81
2022-09-28T17:58:41.985Z,99795.78
2022-09-28T18:01:28.617Z,99783.41
2022-09-28T18:04:46.940Z,99802.63
2022-09-28T18:07:18.658Z,99805.81
2022-09-28T18:10:05.586Z,99811.81
2022-09-28T18:12:45.721Z,99808.63
2022-09-28T18:15:32.610Z,99806.19
2022-09-28T18:18:19.552Z,99797.81
2022-09-28T18:21:01.024Z,99797.41
2022-09-28T18:23:51.556Z,99806.63
2022-09-28T18:26:38.524Z,99801.81
2022-09-28T18:29:18.666Z,99801.41
2022-09-28T18:32:05.572Z,99807.41
2022-09-28T18:34:45.805Z,99804.25
2022-09-28T18:37:32.517Z,99799.44
2022-09-28T18:40:14.718Z,99788.22
2022-09-28T18:43:01.513Z,99794.66
2022-09-28T18:45:42.620Z,99786.66
2022-09-28T18:48:31.505Z,99781.44
2022-09-28T18:51:15.662Z,99788.25
2022-09-28T18:54:02.528Z,99787.84
2022-09-28T18:56:49.553Z,99787.44
2022-09-28T18:59:36.715Z,99777.44
2022-09-28T19:02:19.632Z,99779.06
2022-09-28T19:04:59.884Z,99773.47
2022-09-28T19:07:47.509Z,99776.25
2022-09-28T19:10:27.978Z,99774.66
2022-09-28T19:13:14.495Z,99783.44
2022-09-28T19:16:01.536Z,99788.22
2022-09-28T19:18:43.814Z,99793.03
2022-09-28T19:21:31.475Z,99783.06
2022-09-28T19:24:18.517Z,99780.25
2022-09-28T19:27:05.658Z,99779.03
2022-09-28T19:30:08.495Z,99784.63
2022-09-28T19:32:52.754Z,99793.81
2022-09-28T19:37:08.096Z,99790.22
2022-09-28T19:40:26.312Z,99785.44
2022-09-28T19:43:27.475Z,99792.22
2022-09-28T19:46:16.507Z,99797.03
2022-09-28T19:49:03.469Z,99796.63
2022-09-28T19:52:01.926Z,99792.66
2022-09-28T19:54:51.463Z,99799.03
2022-09-28T19:57:32.690Z,99793.44
2022-09-28T20:00:20.452Z,99793.06
2022-09-28T20:03:00.961Z,99789.03
2022-09-28T20:05:48.455Z,99793.03
2022-09-28T20:08:32.248Z,99788.63
2022-09-28T20:11:19.470Z,99790.25
2022-09-28T20:14:00.282Z,99787.03
2022-09-28T20:16:49.534Z,99793.03
2022-09-28T20:19:36.408Z,99794.22
2022-09-28T20:22:25.502Z,99807.78
2022-09-28T20:25:06.338Z,99803.00
2022-09-28T20:27:53.405Z,99809.78
2022-09-28T20:30:33.785Z,99809.41
2022-09-28T20:33:28.700Z,99793.41
2022-09-28T20:36:11.779Z,99799.44
2022-09-28T20:39:01.389Z,99799.03
2022-09-28T20:41:48.429Z,99804.59
2022-09-28T20:44:28.527Z,99797.03
2022-09-28T20:47:15.366Z,99808.22
2022-09-28T20:50:02.408Z,99805.03
2022-09-28T20:52:42.772Z,99813.81
2022-09-28T20:55:29.375Z,99804.22
2022-09-28T20:58:09.769Z,99810.59
2022-09-28T21:00:56.337Z,99803.00
2022-09-28T21:03:38.191Z,99810.19
2022-09-28T21:06:25.356Z,99804.19
2022-09-28T21:09:13.355Z,99805.81
2022-09-28T21:11:53.473Z,99811.34
2022-09-28T21:14:33.373Z,99806.50
2022-09-28T21:17:13.774Z,99812.09
2022-09-28T21:20:00.375Z,99806.09
2022-09-28T21:22:40.734Z,99810.91
2022-09-28T21:25:27.353Z,99824.84
2022-09-28T21:28:21.374Z,99834.03
2022-09-28T21:31:04.596Z,99834.47
2022-09-28T21:33:51.357Z,99842.03
2022-09-28T21:36:38.362Z,99831.25
2022-09-28T21:39:25.349Z,99834.47
2022-09-28T21:42:05.898Z,99834.03
2022-09-28T21:44:55.291Z,99832.03
2022-09-28T21:47:37.811Z,99828.06
2022-09-28T21:50:24.312Z,99823.22
2022-09-28T21:53:04.677Z,99829.97
2022-09-28T21:55:52.331Z,99834.72
2022-09-28T21:58:35.418Z,99824.75
2022-09-28T22:01:49.377Z,99826.78
2022-09-28T22:04:29.683Z,99816.38
2022-09-28T22:07:16.319Z,99816.38
2022-09-28T22:10:03.305Z,99813.66
2022-09-28T22:12:43.490Z,99814.47
2022-09-28T22:15:30.311Z,99809.25
2022-09-28T22:18:17.319Z,99817.28
2022-09-28T22:21:02.901Z,99812.09
2022-09-28T22:23:50.300Z,99804.44
2022-09-28T22:26:38.296Z,99818.78
2022-09-28T22:29:18.375Z,99814.75
2022-09-28T22:32:08.251Z,99817.53
2022-09-28T22:34:48.386Z,99822.69
2022-09-28T22:37:35.278Z,99820.31
2022-09-28T22:40:16.638Z,99819.50
2022-09-28T22:43:03.269Z,99815.50
2022-09-28T22:45:50.302Z,99809.03
2022-09-28T22:48:37.275Z,99807.03
2022-09-28T22:51:17.379Z,99801.81
2022-09-28T22:54:04.296Z,99798.22
2022-09-28T22:56:44.349Z,99795.03
2022-09-28T22:59:31.282Z,99791.78
2022-09-28T23:02:11.356Z,99793.34
2022-09-28T23:05:05.280Z,99799.81
2022-09-28T23:07:53.504Z,99797.38
2022-09-28T23:10:40.231Z,99787.84
2022-09-28T23:13:21.324Z,99787.06
2022-09-28T23:16:11.240Z,99783.56
2022-09-28T23:18:58.251Z,99791.94
2022-09-28T23:21:38.576Z,99795.50
2022-09-28T23:24:25.272Z,99795.44
2022-09-28T23:27:19.204Z,99791.09
2022-09-28T23:30:06.180Z,99797.44
2022-09-28T23:32:46.578Z,99794.63
2022-09-28T23:35:33.172Z,99791.38
2022-09-28T23:38:18.004Z,99794.91
2022-09-28T23:41:05.212Z,99785.69
2022-09-28T23:43:45.276Z,99783.69
2022-09-28T23:46:32.261Z,99779.59
2022-09-28T23:49:12.555Z,99784.75
2022-09-28T23:51:59.198Z,99782.75
2022-09-28T23:54:39.813Z,99779.50
2022-09-28T23:57:26.216Z,99767.94
